createdAt,value
2019-03-20T00:05:16.171Z,2.73
2019-03-20T00:25:25.589Z,3.29
2019-03-20T00:45:34.941Z,2.65
2019-03-20T01:05:45.259Z,3.96
2019-03-20T01:25:44.567Z,3.51
2019-03-20T01:45:53.876Z,2.78
2019-03-20T02:06:03.671Z,3.79
2019-03-20T02:26:13.073Z,2.26
2019-03-20T02:46:22.471Z,2.96
2019-03-20T03:06:31.974Z,3.02
2019-03-20T03:26:43.622Z,3.19
2019-03-20T03:46:43.830Z,4.12
2019-03-20T04:06:43.170Z,4.70
2019-03-20T04:26:52.670Z,5.41
2019-03-20T04:47:04.314Z,5.00
2019-03-20T05:07:03.749Z,6.66
2019-03-20T05:27:13.244Z,9.33
2019-03-20T05:47:25.133Z,11.92
2019-03-20T06:07:24.571Z,9.03
2019-03-20T06:27:36.247Z,15.50
2019-03-20T06:47:37.860Z,6.39
2019-03-20T07:07:43.946Z,6.15
2019-03-20T07:27:46.243Z,6.31
2019-03-20T07:47:55.835Z,6.49
2019-03-20T08:08:07.628Z,5.64
2019-03-20T08:28:14.287Z,7.32
2019-03-20T08:48:23.654Z,7.47
2019-03-20T09:08:33.103Z,7.30
2019-03-20T09:28:42.489Z,7.97
2019-03-20T09:48:51.878Z,7.11
2019-03-20T10:09:02.070Z,7.51
2019-03-20T10:29:10.142Z,9.27
2019-03-20T10:49:19.610Z,7.16
2019-03-20T11:09:29.029Z,7.91
2019-03-20T11:29:38.445Z,7.88
2019-03-20T11:49:47.814Z,9.17
2019-03-20T12:09:58.894Z,8.75
2019-03-20T12:30:07.161Z,10.76
2019-03-20T12:50:11.276Z,6.47
2019-03-20T13:10:10.665Z,5.18
2019-03-20T13:30:24.792Z,8.83
2019-03-20T13:50:22.515Z,6.65
2019-03-20T14:10:49.371Z,6.16
2019-03-20T14:30:33.772Z,6.77
2019-03-20T14:50:43.233Z,7.28
2019-03-20T15:10:52.619Z,5.95
2019-03-20T15:31:01.986Z,6.01
2019-03-20T15:51:11.473Z,7.14
2019-03-20T16:11:38.864Z,6.25
2019-03-20T16:31:28.284Z,6.51
2019-03-20T16:51:36.313Z,6.23
2019-03-20T17:11:53.715Z,10.71
2019-03-20T17:31:53.253Z,13.97
2019-03-20T17:52:05.124Z,16.56
2019-03-20T18:12:04.954Z,12.60
2019-03-20T18:32:15.116Z,11.55
2019-03-20T18:52:18.009Z,9.73
2019-03-20T19:12:17.529Z,7.99
2019-03-20T19:32:29.429Z,8.56
2019-03-20T19:52:29.800Z,9.00
2019-03-20T20:12:31.557Z,9.11
2019-03-20T20:32:31.562Z,7.19
2019-03-20T20:52:30.964Z,8.22
2019-03-20T21:12:42.540Z,6.77
2019-03-20T21:32:49.371Z,5.84
2019-03-20T21:52:58.654Z,9.06
2019-03-20T22:13:18.148Z,7.25
2019-03-20T22:33:19.209Z,6.84
2019-03-20T22:53:20.897Z,8.13
2019-03-20T23:13:22.576Z,9.28
2019-03-20T23:33:21.972Z,7.61
2019-03-20T23:53:31.392Z,7.70
